KCON

Concord Municipal Airport

Concord, New Hampshire, USA
METAR KCON 232305Z AUTO 00000KT 9SM BKN006 00/M01 A2950 RMK AO2 T00001011
Observed Flight Rules
Jan-23 @ 23:05 UTC (22 minutes ago) Instrument Flight Rules
Wind Visibility Clouds
Calm 9 miles
  • Broken at 600' AGL
Temperatures Readings
Current 0°C / 32°F
Dewpoint -1°C / 30°F
Humidity 93%
Altimeter 29.5" Hg
Pressure 999 hPa
Elevation 103
METAR KCON 232305Z AUTO 00000KT 9SM BKN006 00/M01 A2950 RMK AO2 T00001011
Observed Flight Rules
Jan-23 @ 23:05 UTC
(22 minutes ago)
IFR
Wind Visibility
Calm 9 miles
Clouds
  • Broken at 600' AGL
Temperature Dewpoint
0°C / 32°F -1°C / 30°F
Humidity Altimeter Pressure
93% 29.5" Hg 999 hPa